sensor_id;sensor_type;location;lat;lon;timestamp;P1;durP1;ratioP1;P2;durP2;ratioP2
46110;SDS011;31849;55.992;37.252;2022-11-24T00:01:16;9.93;;;5.55;;
46110;SDS011;31849;55.992;37.252;2022-11-24T00:06:21;10.77;;;6.13;;
46110;SDS011;31849;55.992;37.252;2022-11-24T00:11:26;10.93;;;6.53;;
46110;SDS011;31849;55.992;37.252;2022-11-24T00:16:32;9.52;;;5.93;;
46110;SDS011;31849;55.992;37.252;2022-11-24T00:21:36;11.60;;;6.32;;
46110;SDS011;31849;55.992;37.252;2022-11-24T00:26:41;10.97;;;5.83;;
46110;SDS011;31849;55.992;37.252;2022-11-24T00:31:44;10.90;;;6.25;;
46110;SDS011;31849;55.992;37.252;2022-11-24T00:36:48;10.63;;;6.45;;
46110;SDS011;31849;55.992;37.252;2022-11-24T00:41:52;14.25;;;6.55;;
46110;SDS011;31849;55.992;37.252;2022-11-24T00:46:56;11.50;;;6.55;;
46110;SDS011;31849;55.992;37.252;2022-11-24T00:51:59;14.48;;;6.80;;
46110;SDS011;31849;55.992;37.252;2022-11-24T00:57:04;15.02;;;6.78;;
46110;SDS011;31849;55.992;37.252;2022-11-24T01:02:07;13.32;;;6.78;;
46110;SDS011;31849;55.992;37.252;2022-11-24T01:07:11;12.50;;;6.85;;
46110;SDS011;31849;55.992;37.252;2022-11-24T01:12:16;14.38;;;7.68;;
46110;SDS011;31849;55.992;37.252;2022-11-24T01:17:19;12.43;;;6.97;;
46110;SDS011;31849;55.992;37.252;2022-11-24T01:22:22;12.57;;;7.00;;
46110;SDS011;31849;55.992;37.252;2022-11-24T01:27:29;13.13;;;7.47;;
46110;SDS011;31849;55.992;37.252;2022-11-24T01:32:32;13.77;;;7.43;;
46110;SDS011;31849;55.992;37.252;2022-11-24T01:37:36;15.93;;;7.78;;
46110;SDS011;31849;55.992;37.252;2022-11-24T01:42:45;15.60;;;7.80;;
46110;SDS011;31849;55.992;37.252;2022-11-24T01:47:50;13.38;;;7.45;;
46110;SDS011;31849;55.992;37.252;2022-11-24T01:52:53;15.25;;;8.02;;
46110;SDS011;31849;55.992;37.252;2022-11-24T01:58:00;18.38;;;7.97;;
46110;SDS011;31849;55.992;37.252;2022-11-24T02:03:07;14.93;;;7.60;;
46110;SDS011;31849;55.992;37.252;2022-11-24T02:08:12;13.55;;;7.72;;
46110;SDS011;31849;55.992;37.252;2022-11-24T02:13:24;15.63;;;7.80;;
46110;SDS011;31849;55.992;37.252;2022-11-24T07:05:37;13.40;;;7.25;;
46110;SDS011;31849;55.992;37.252;2022-11-24T07:10:41;14.63;;;7.57;;
46110;SDS011;31849;55.992;37.252;2022-11-24T07:15:44;14.50;;;7.43;;
46110;SDS011;31849;55.992;37.252;2022-11-24T07:20:49;13.65;;;7.70;;
46110;SDS011;31849;55.992;37.252;2022-11-24T07:25:52;15.90;;;8.13;;
46110;SDS011;31849;55.992;37.252;2022-11-24T07:30:55;16.92;;;8.70;;
46110;SDS011;31849;55.992;37.252;2022-11-24T07:36:00;16.05;;;8.85;;
46110;SDS011;31849;55.992;37.252;2022-11-24T07:41:05;15.98;;;8.52;;
46110;SDS011;31849;55.992;37.252;2022-11-24T07:46:11;19.65;;;9.75;;
46110;SDS011;31849;55.992;37.252;2022-11-24T07:51:18;14.93;;;7.63;;
46110;SDS011;31849;55.992;37.252;2022-11-24T07:56:21;14.70;;;8.30;;
46110;SDS011;31849;55.992;37.252;2022-11-24T08:01:24;16.40;;;8.55;;
46110;SDS011;31849;55.992;37.252;2022-11-24T08:06:29;28.40;;;14.48;;
46110;SDS011;31849;55.992;37.252;2022-11-24T08:11:41;16.75;;;8.70;;
46110;SDS011;31849;55.992;37.252;2022-11-24T08:16:44;20.30;;;10.00;;
46110;SDS011;31849;55.992;37.252;2022-11-24T08:21:49;16.38;;;9.00;;
46110;SDS011;31849;55.992;37.252;2022-11-24T08:26:52;16.52;;;9.00;;
46110;SDS011;31849;55.992;37.252;2022-11-24T08:31:55;16.52;;;9.23;;
46110;SDS011;31849;55.992;37.252;2022-11-24T08:37:01;17.45;;;9.43;;
46110;SDS011;31849;55.992;37.252;2022-11-24T08:42:05;16.70;;;8.65;;
46110;SDS011;31849;55.992;37.252;2022-11-24T08:47:08;17.92;;;8.35;;
46110;SDS011;31849;55.992;37.252;2022-11-24T08:52:12;17.60;;;9.25;;
46110;SDS011;31849;55.992;37.252;2022-11-24T08:57:17;18.38;;;8.80;;
46110;SDS011;31849;55.992;37.252;2022-11-24T09:07:26;16.20;;;8.93;;
46110;SDS011;31849;55.992;37.252;2022-11-24T09:12:30;15.43;;;8.98;;
46110;SDS011;31849;55.992;37.252;2022-11-24T09:17:33;18.20;;;8.18;;
46110;SDS011;31849;55.992;37.252;2022-11-24T09:22:38;18.40;;;8.60;;
46110;SDS011;31849;55.992;37.252;2022-11-24T09:27:43;17.42;;;9.25;;
46110;SDS011;31849;55.992;37.252;2022-11-24T09:32:47;16.40;;;8.65;;
46110;SDS011;31849;55.992;37.252;2022-11-24T09:37:52;15.00;;;8.43;;
46110;SDS011;31849;55.992;37.252;2022-11-24T09:42:57;16.75;;;8.57;;
46110;SDS011;31849;55.992;37.252;2022-11-24T09:48:07;16.13;;;8.68;;
46110;SDS011;31849;55.992;37.252;2022-11-24T09:53:19;18.50;;;9.57;;
46110;SDS011;31849;55.992;37.252;2022-11-24T09:58:35;17.58;;;9.10;;
46110;SDS011;31849;55.992;37.252;2022-11-24T10:03:45;18.25;;;7.75;;
46110;SDS011;31849;55.992;37.252;2022-11-24T10:14:31;20.30;;;9.45;;
46110;SDS011;31849;55.992;37.252;2022-11-24T10:19:55;21.13;;;9.80;;
46110;SDS011;31849;55.992;37.252;2022-11-24T10:25:10;17.10;;;8.60;;
46110;SDS011;31849;55.992;37.252;2022-11-24T10:30:20;16.98;;;8.70;;
46110;SDS011;31849;55.992;37.252;2022-11-24T10:35:27;19.55;;;8.88;;
46110;SDS011;31849;55.992;37.252;2022-11-24T10:40:34;18.30;;;9.07;;
46110;SDS011;31849;55.992;37.252;2022-11-24T10:45:58;18.52;;;9.50;;
46110;SDS011;31849;55.992;37.252;2022-11-24T10:51:20;15.40;;;8.40;;
46110;SDS011;31849;55.992;37.252;2022-11-24T10:56:40;19.47;;;9.20;;
46110;SDS011;31849;55.992;37.252;2022-11-24T11:01:44;17.27;;;9.13;;
46110;SDS011;31849;55.992;37.252;2022-11-24T11:06:47;19.42;;;9.23;;
46110;SDS011;31849;55.992;37.252;2022-11-24T11:11:52;22.23;;;10.13;;
46110;SDS011;31849;55.992;37.252;2022-11-24T11:16:57;18.75;;;9.13;;
46110;SDS011;31849;55.992;37.252;2022-11-24T11:22:01;19.25;;;9.15;;
46110;SDS011;31849;55.992;37.252;2022-11-24T11:27:15;20.42;;;9.32;;
46110;SDS011;31849;55.992;37.252;2022-11-24T11:32:20;19.52;;;9.18;;
46110;SDS011;31849;55.992;37.252;2022-11-24T11:37:45;18.80;;;9.15;;
46110;SDS011;31849;55.992;37.252;2022-11-24T11:42:53;18.30;;;9.65;;
46110;SDS011;31849;55.992;37.252;2022-11-24T11:48:12;19.77;;;9.73;;
46110;SDS011;31849;55.992;37.252;2022-11-24T11:53:27;18.13;;;9.95;;
46110;SDS011;31849;55.992;37.252;2022-11-24T11:58:49;20.07;;;9.90;;
46110;SDS011;31849;55.992;37.252;2022-11-24T12:04:11;21.88;;;11.00;;
46110;SDS011;31849;55.992;37.252;2022-11-24T12:09:25;19.45;;;10.05;;
46110;SDS011;31849;55.992;37.252;2022-11-24T12:14:43;20.37;;;10.20;;
46110;SDS011;31849;55.992;37.252;2022-11-24T12:20:02;20.77;;;9.67;;
46110;SDS011;31849;55.992;37.252;2022-11-24T12:25:21;20.07;;;9.33;;
46110;SDS011;31849;55.992;37.252;2022-11-24T12:30:32;22.13;;;10.03;;
46110;SDS011;31849;55.992;37.252;2022-11-24T12:35:43;21.07;;;11.07;;
46110;SDS011;31849;55.992;37.252;2022-11-24T12:40:55;21.05;;;11.18;;
46110;SDS011;31849;55.992;37.252;2022-11-24T12:46:37;25.38;;;11.07;;
46110;SDS011;31849;55.992;37.252;2022-11-24T12:51:50;24.83;;;11.98;;
46110;SDS011;31849;55.992;37.252;2022-11-24T12:56:58;23.40;;;10.83;;
46110;SDS011;31849;55.992;37.252;2022-11-24T13:02:14;24.98;;;11.95;;
46110;SDS011;31849;55.992;37.252;2022-11-24T13:07:35;24.67;;;12.52;;
46110;SDS011;31849;55.992;37.252;2022-11-24T13:12:53;26.58;;;12.15;;
46110;SDS011;31849;55.992;37.252;2022-11-24T13:23:19;25.88;;;11.95;;
46110;SDS011;31849;55.992;37.252;2022-11-24T13:40:00;31.70;;;13.67;;
46110;SDS011;31849;55.992;37.252;2022-11-24T13:45:08;30.80;;;13.95;;
46110;SDS011;31849;55.992;37.252;2022-11-24T13:51:07;32.83;;;14.40;;
46110;SDS011;31849;55.992;37.252;2022-11-24T13:56:22;31.98;;;13.77;;
46110;SDS011;31849;55.992;37.252;2022-11-24T14:01:29;32.47;;;14.30;;
46110;SDS011;31849;55.992;37.252;2022-11-24T14:06:35;29.03;;;13.07;;
46110;SDS011;31849;55.992;37.252;2022-11-24T14:11:43;33.03;;;14.00;;
46110;SDS011;31849;55.992;37.252;2022-11-24T14:22:30;32.40;;;14.27;;
46110;SDS011;31849;55.992;37.252;2022-11-24T14:27:39;32.97;;;14.50;;
46110;SDS011;31849;55.992;37.252;2022-11-24T14:37:55;28.87;;;14.27;;
46110;SDS011;31849;55.992;37.252;2022-11-24T14:43:05;27.90;;;13.60;;
46110;SDS011;31849;55.992;37.252;2022-11-24T14:48:23;26.27;;;12.43;;
46110;SDS011;31849;55.992;37.252;2022-11-24T14:53:28;29.47;;;12.80;;
46110;SDS011;31849;55.992;37.252;2022-11-24T14:58:33;25.53;;;12.87;;
46110;SDS011;31849;55.992;37.252;2022-11-24T15:03:42;27.93;;;13.47;;
46110;SDS011;31849;55.992;37.252;2022-11-24T15:08:46;26.80;;;12.97;;
46110;SDS011;31849;55.992;37.252;2022-11-24T15:13:52;29.73;;;14.57;;
46110;SDS011;31849;55.992;37.252;2022-11-24T15:18:56;29.03;;;13.80;;
46110;SDS011;31849;55.992;37.252;2022-11-24T15:24:06;26.00;;;12.90;;
46110;SDS011;31849;55.992;37.252;2022-11-24T15:29:21;24.57;;;11.53;;
46110;SDS011;31849;55.992;37.252;2022-11-24T15:39:27;22.87;;;11.50;;
46110;SDS011;31849;55.992;37.252;2022-11-24T15:44:32;20.00;;;9.83;;
46110;SDS011;31849;55.992;37.252;2022-11-24T15:49:36;18.98;;;9.63;;
46110;SDS011;31849;55.992;37.252;2022-11-24T15:54:39;20.10;;;9.73;;
46110;SDS011;31849;55.992;37.252;2022-11-24T15:59:43;20.77;;;9.93;;
46110;SDS011;31849;55.992;37.252;2022-11-24T16:09:50;17.85;;;9.18;;
46110;SDS011;31849;55.992;37.252;2022-11-24T16:14:55;18.02;;;9.65;;
46110;SDS011;31849;55.992;37.252;2022-11-24T16:19:59;17.75;;;8.95;;
46110;SDS011;31849;55.992;37.252;2022-11-24T16:25:04;20.23;;;10.23;;
46110;SDS011;31849;55.992;37.252;2022-11-24T16:30:11;18.52;;;9.73;;
46110;SDS011;31849;55.992;37.252;2022-11-24T16:35:15;14.17;;;7.87;;
46110;SDS011;31849;55.992;37.252;2022-11-24T16:40:19;16.07;;;9.17;;
46110;SDS011;31849;55.992;37.252;2022-11-24T16:45:23;18.33;;;8.53;;
46110;SDS011;31849;55.992;37.252;2022-11-24T16:50:27;16.02;;;8.20;;
46110;SDS011;31849;55.992;37.252;2022-11-24T16:55:30;17.40;;;8.50;;
46110;SDS011;31849;55.992;37.252;2022-11-24T17:00:35;18.63;;;9.23;;
46110;SDS011;31849;55.992;37.252;2022-11-24T17:10:41;18.13;;;8.97;;
46110;SDS011;31849;55.992;37.252;2022-11-24T17:15:46;18.80;;;9.17;;
46110;SDS011;31849;55.992;37.252;2022-11-24T17:20:55;19.07;;;9.43;;
46110;SDS011;31849;55.992;37.252;2022-11-24T17:26:04;19.20;;;9.27;;
46110;SDS011;31849;55.992;37.252;2022-11-24T17:31:14;20.63;;;10.47;;
46110;SDS011;31849;55.992;37.252;2022-11-24T17:36:21;15.73;;;8.80;;
46110;SDS011;31849;55.992;37.252;2022-11-24T17:41:25;18.00;;;9.03;;
46110;SDS011;31849;55.992;37.252;2022-11-24T17:46:30;16.23;;;8.60;;
46110;SDS011;31849;55.992;37.252;2022-11-24T17:56:37;15.80;;;8.40;;
46110;SDS011;31849;55.992;37.252;2022-11-24T18:01:45;16.23;;;8.23;;
46110;SDS011;31849;55.992;37.252;2022-11-24T18:06:51;16.13;;;8.17;;
46110;SDS011;31849;55.992;37.252;2022-11-24T18:11:54;16.48;;;7.50;;
46110;SDS011;31849;55.992;37.252;2022-11-24T18:16:58;14.17;;;7.50;;
46110;SDS011;31849;55.992;37.252;2022-11-24T18:27:05;14.30;;;7.23;;
46110;SDS011;31849;55.992;37.252;2022-11-24T18:32:10;15.53;;;8.40;;
46110;SDS011;31849;55.992;37.252;2022-11-24T18:37:13;15.75;;;8.35;;
46110;SDS011;31849;55.992;37.252;2022-11-24T18:42:17;16.57;;;7.77;;
46110;SDS011;31849;55.992;37.252;2022-11-24T18:47:22;14.60;;;8.35;;
46110;SDS011;31849;55.992;37.252;2022-11-24T18:52:27;13.75;;;7.63;;
46110;SDS011;31849;55.992;37.252;2022-11-24T18:57:32;13.75;;;7.30;;
46110;SDS011;31849;55.992;37.252;2022-11-24T19:02:37;13.97;;;6.83;;
46110;SDS011;31849;55.992;37.252;2022-11-24T19:07:40;12.43;;;6.43;;
46110;SDS011;31849;55.992;37.252;2022-11-24T19:12:44;13.40;;;6.27;;
46110;SDS011;31849;55.992;37.252;2022-11-24T19:17:48;13.60;;;6.40;;
46110;SDS011;31849;55.992;37.252;2022-11-24T19:22:52;12.93;;;6.30;;
46110;SDS011;31849;55.992;37.252;2022-11-24T19:27:55;10.77;;;5.93;;
46110;SDS011;31849;55.992;37.252;2022-11-24T19:33:00;15.20;;;7.40;;
46110;SDS011;31849;55.992;37.252;2022-11-24T19:43:06;13.87;;;7.10;;
46110;SDS011;31849;55.992;37.252;2022-11-24T19:48:11;17.17;;;7.37;;
46110;SDS011;31849;55.992;37.252;2022-11-24T19:53:14;17.73;;;8.57;;
46110;SDS011;31849;55.992;37.252;2022-11-24T19:58:17;17.93;;;8.47;;
46110;SDS011;31849;55.992;37.252;2022-11-24T20:03:22;16.70;;;7.80;;
46110;SDS011;31849;55.992;37.252;2022-11-24T20:13:31;17.27;;;7.70;;
46110;SDS011;31849;55.992;37.252;2022-11-24T20:18:38;18.23;;;6.97;;
46110;SDS011;31849;55.992;37.252;2022-11-24T20:23:45;13.20;;;7.07;;
46110;SDS011;31849;55.992;37.252;2022-11-24T20:28:54;17.10;;;7.40;;
46110;SDS011;31849;55.992;37.252;2022-11-24T20:34:01;17.13;;;7.70;;
46110;SDS011;31849;55.992;37.252;2022-11-24T20:39:08;16.57;;;7.10;;
46110;SDS011;31849;55.992;37.252;2022-11-24T20:44:16;18.47;;;7.63;;
46110;SDS011;31849;55.992;37.252;2022-11-24T20:49:23;17.60;;;8.07;;
46110;SDS011;31849;55.992;37.252;2022-11-24T20:54:26;21.57;;;8.20;;
46110;SDS011;31849;55.992;37.252;2022-11-24T20:59:30;16.97;;;8.10;;
46110;SDS011;31849;55.992;37.252;2022-11-24T21:04:35;14.93;;;7.77;;
46110;SDS011;31849;55.992;37.252;2022-11-24T21:09:40;18.63;;;7.70;;
46110;SDS011;31849;55.992;37.252;2022-11-24T21:14:43;16.15;;;7.75;;
46110;SDS011;31849;55.992;37.252;2022-11-24T21:19:47;15.80;;;7.00;;
46110;SDS011;31849;55.992;37.252;2022-11-24T21:24:51;13.95;;;6.82;;
46110;SDS011;31849;55.992;37.252;2022-11-24T21:29:54;13.33;;;6.20;;
46110;SDS011;31849;55.992;37.252;2022-11-24T21:34:59;11.23;;;6.30;;
46110;SDS011;31849;55.992;37.252;2022-11-24T21:40:03;11.70;;;5.70;;
46110;SDS011;31849;55.992;37.252;2022-11-24T21:50:13;9.13;;;4.10;;
46110;SDS011;31849;55.992;37.252;2022-11-24T21:55:17;9.53;;;4.50;;
46110;SDS011;31849;55.992;37.252;2022-11-24T22:00:21;8.63;;;4.33;;
46110;SDS011;31849;55.992;37.252;2022-11-24T22:05:25;8.70;;;3.90;;
46110;SDS011;31849;55.992;37.252;2022-11-24T22:15:32;8.53;;;4.20;;
46110;SDS011;31849;55.992;37.252;2022-11-24T22:20:36;10.33;;;4.33;;
46110;SDS011;31849;55.992;37.252;2022-11-24T22:25:40;8.33;;;3.80;;
46110;SDS011;31849;55.992;37.252;2022-11-24T22:30:43;8.53;;;3.87;;
46110;SDS011;31849;55.992;37.252;2022-11-24T22:35:55;7.20;;;3.77;;
46110;SDS011;31849;55.992;37.252;2022-11-24T22:40:59;7.77;;;3.97;;
46110;SDS011;31849;55.992;37.252;2022-11-24T22:46:03;7.03;;;3.60;;
46110;SDS011;31849;55.992;37.252;2022-11-24T22:51:09;7.72;;;3.72;;
46110;SDS011;31849;55.992;37.252;2022-11-24T22:56:14;8.27;;;4.07;;
46110;SDS011;31849;55.992;37.252;2022-11-24T23:01:18;8.18;;;4.07;;
46110;SDS011;31849;55.992;37.252;2022-11-24T23:06:24;9.33;;;4.27;;
46110;SDS011;31849;55.992;37.252;2022-11-24T23:11:29;9.07;;;4.17;;
46110;SDS011;31849;55.992;37.252;2022-11-24T23:16:39;7.73;;;4.07;;
46110;SDS011;31849;55.992;37.252;2022-11-24T23:21:44;9.70;;;4.13;;
46110;SDS011;31849;55.992;37.252;2022-11-24T23:31:50;8.48;;;4.22;;
46110;SDS011;31849;55.992;37.252;2022-11-24T23:36:55;7.57;;;4.07;;
46110;SDS011;31849;55.992;37.252;2022-11-24T23:47:01;9.77;;;4.67;;
46110;SDS011;31849;55.992;37.252;2022-11-24T23:52:05;8.40;;;4.77;;
46110;SDS011;31849;55.992;37.252;2022-11-24T23:57:09;9.48;;;4.57;;
